Time;durP1;ratioP1;P1;durP2;ratioP2;P2;SDS_P1;SDS_P2;PMS_P1;PMS_P2;Temp;Humidity;BMP_temperature;BMP_pressure;BME280_temperature;BME280_humidity;BME280_pressure;Samples;Min_cycle;Max_cycle;Signal;HPM_P1;HPM_P2
2023/09/03 00:02:05;;;;;;;;;4.00;3.00;;;;;22.01;67.23;101642.69;5074578;28;64752;-67
2023/09/03 00:04:30;;;;;;;;;4.25;4.00;;;;;21.99;66.92;101645.44;5067533;28;45998;-67
2023/09/03 00:06:55;;;;;;;;;2.75;2.75;;;;;21.96;67.52;101640.28;5076441;27;69857;-67
2023/09/03 00:09:21;;;;;;;;;2.25;2.25;;;;;21.96;67.29;101644.78;5077526;28;45429;-67
2023/09/03 00:11:46;;;;;;;;;3.75;3.75;;;;;21.96;67.04;101650.09;5069343;27;55297;-67
2023/09/03 00:14:11;;;;;;;;;3.00;3.00;;;;;21.94;66.82;101650.19;5074578;28;75181;-67
2023/09/03 00:16:37;;;;;;;;;6.00;3.25;;;;;21.92;67.39;101646.75;5079677;27;48298;-67
2023/09/03 00:19:02;;;;;;;;;4.75;2.75;;;;;21.92;67.06;101646.75;5068311;28;45326;-66
2023/09/03 00:21:28;;;;;;;;;5.00;3.50;;;;;21.92;67.51;101644.09;5078747;28;45259;-66
2023/09/03 00:23:53;;;;;;;;;2.75;2.75;;;;;21.92;67.11;101651.22;5070719;27;69139;-67
2023/09/03 00:26:21;;;;;;;;;4.00;4.00;;;;;21.91;66.63;101653.03;5077803;27;68459;-67
2023/09/03 00:28:49;;;;;;;;;5.75;4.00;;;;;21.89;67.41;101651.41;5072021;28;45406;-67
2023/09/03 00:31:14;;;;;;;;;2.75;2.25;;;;;21.89;66.98;101654.09;5078927;28;45401;-66
2023/09/03 00:33:39;;;;;;;;;3.00;2.00;;;;;21.87;67.14;101653.28;5077752;27;46110;-66
2023/09/03 00:36:06;;;;;;;;;4.00;3.00;;;;;21.86;67.31;101664.91;5095138;27;45273;-67
2023/09/03 00:38:32;;;;;;;;;3.25;3.25;;;;;21.84;67.46;101664.16;5074754;27;45342;-67
2023/09/03 00:40:57;;;;;;;;;15.00;14.75;;;;;21.79;68.15;101670.59;5064762;28;45597;-67
2023/09/03 00:43:23;;;;;;;;;5.75;3.75;;;;;21.76;67.86;101657.47;5065788;28;46411;-67
2023/09/03 00:45:49;;;;;;;;;2.25;2.25;;;;;21.76;67.78;101669.94;5068632;27;68791;-66
2023/09/03 00:48:28;;;;;;;;;3.00;3.00;;;;;21.73;67.27;101670.13;5074704;28;45332;-67
2023/09/03 00:50:54;;;;;;;;;3.00;3.00;;;;;21.71;67.86;101677.31;5070260;28;45367;-67
2023/09/03 00:53:20;;;;;;;;;7.50;4.00;;;;;21.70;67.39;101676.47;5064047;28;45266;-67
2023/09/03 00:55:45;;;;;;;;;2.00;2.00;;;;;21.68;67.96;101677.53;5071288;28;45405;-67
2023/09/03 00:58:11;;;;;;;;;4.00;4.00;;;;;21.66;68.13;101676.78;5061317;28;68282;-67
2023/09/03 01:00:37;;;;;;;;;3.00;3.00;;;;;21.65;68.03;101677.69;5074494;27;45516;-67
2023/09/03 01:03:04;;;;;;;;;3.50;3.25;;;;;21.61;68.07;101674.38;5073837;27;69562;-67
2023/09/03 01:05:29;;;;;;;;;5.25;3.00;;;;;21.61;68.25;101677.03;5073987;28;45830;-67
2023/09/03 01:07:56;;;;;;;;;2.75;2.25;;;;;21.60;67.99;101677.97;5074965;27;45286;-67
2023/09/03 01:10:35;;;;;;;;;4.00;3.00;;;;;21.57;68.27;101676.34;5078627;27;45513;-67
2023/09/03 01:13:09;;;;;;;;;4.00;2.25;;;;;21.57;68.48;101675.50;5057114;28;48528;-67
2023/09/03 01:15:38;;;;;;;;;4.25;3.50;;;;;21.55;68.29;101672.06;5071540;27;45984;-67
2023/09/03 01:18:21;;;;;;;;;4.00;4.00;;;;;21.53;68.03;101672.16;5074475;28;45400;-66
2023/09/03 01:21:23;;;;;;;;;3.50;3.25;;;;;21.52;68.37;101669.56;5081271;27;45350;-67
2023/09/03 01:23:58;;;;;;;;;3.00;3.00;;;;;21.50;68.56;101659.00;5078861;27;46519;-67
2023/09/03 01:26:38;;;;;;;;;4.00;4.00;;;;;21.49;68.59;101653.78;5090322;27;45714;-68
2023/09/03 01:29:04;;;;;;;;;5.00;3.00;;;;;21.48;68.60;101649.38;5076334;27;45315;-68
2023/09/03 01:31:30;;;;;;;;;4.50;3.00;;;;;21.50;68.65;101648.34;5077840;27;62524;-67
2023/09/03 01:34:02;;;;;;;;;3.50;3.00;;;;;21.50;68.23;101644.84;5070999;27;76171;-67
2023/09/03 01:36:30;;;;;;;;;5.50;3.00;;;;;21.50;68.50;101645.69;5078509;27;45825;-67
2023/09/03 01:38:57;;;;;;;;;3.00;3.00;;;;;21.52;68.74;101635.81;5082532;27;45470;-67
2023/09/03 01:41:23;;;;;;;;;1.75;1.75;;;;;21.50;68.36;101627.06;5086346;27;45205;-66
2023/09/03 01:43:48;;;;;;;;;2.75;2.00;;;;;21.49;68.45;101632.47;5081186;27;73868;-66
2023/09/03 01:46:19;;;;;;;;;3.50;3.00;;;;;21.48;68.86;101633.41;5072135;27;62002;-67
2023/09/03 01:49:42;;;;;;;;;3.50;3.00;;;;;21.47;68.42;101627.22;5072675;27;45377;-66
2023/09/03 01:52:19;;;;;;;;;4.00;3.25;;;;;21.47;68.43;101629.03;5039525;28;45563;-67
2023/09/03 01:54:48;;;;;;;;;3.00;3.00;;;;;21.45;68.99;101633.56;5039585;28;46350;-67
2023/09/03 01:57:20;;;;;;;;;3.00;3.00;;;;;21.43;68.61;101631.84;5052368;27;45772;-67
2023/09/03 01:59:48;;;;;;;;;4.00;3.75;;;;;21.43;68.47;101626.50;5076368;27;45394;-66
2023/09/03 02:02:17;;;;;;;;;5.00;3.00;;;;;21.42;69.09;101622.16;5074075;27;45174;-66
2023/09/03 02:04:42;;;;;;;;;3.75;2.75;;;;;21.40;68.78;101618.69;5068841;27;45478;-66
2023/09/03 02:07:08;;;;;;;;;4.75;3.00;;;;;21.37;68.32;101615.34;5069652;27;45433;-66
2023/09/03 02:09:33;;;;;;;;;4.00;2.00;;;;;21.36;69.19;101622.50;5076491;27;45329;-66
2023/09/03 02:11:59;;;;;;;;;3.25;3.25;;;;;21.36;69.05;101627.81;5078290;27;45352;-66
2023/09/03 02:14:26;;;;;;;;;4.50;3.00;;;;;21.34;68.92;101628.88;5080707;27;46226;-66
2023/09/03 02:16:51;;;;;;;;;3.50;2.75;;;;;21.30;68.75;101630.84;5078924;27;45646;-67
2023/09/03 02:19:17;;;;;;;;;23.25;18.50;;;;;21.27;68.93;101641.69;5074664;28;45291;-67
2023/09/03 02:21:42;;;;;;;;;4.50;3.00;;;;;21.23;69.34;101641.00;5068484;27;45260;-67
2023/09/03 02:24:07;;;;;;;;;5.50;4.00;;;;;21.20;69.48;101657.13;5068630;27;63646;-66
2023/09/03 02:26:39;;;;;;;;;3.00;2.00;;;;;21.17;69.05;101648.47;5077589;27;45268;-67
2023/09/03 02:29:05;;;;;;;;;3.00;3.00;;;;;21.15;69.54;101661.00;5065350;28;45343;-67
2023/09/03 02:31:30;;;;;;;;;3.00;3.00;;;;;21.12;70.72;101658.50;5079027;28;45468;-66
2023/09/03 02:33:55;;;;;;;;;5.25;4.50;;;;;21.08;70.25;101649.84;5081106;27;59649;-67
2023/09/03 02:36:21;;;;;;;;;3.75;3.00;;;;;21.07;69.80;101648.16;5107583;27;45267;-67
2023/09/03 02:38:46;;;;;;;;;4.25;3.00;;;;;21.04;70.11;101648.31;5075405;27;62995;-66
2023/09/03 02:41:11;;;;;;;;;3.00;3.00;;;;;21.00;70.08;101646.75;5072748;27;68399;-66
2023/09/03 02:43:37;;;;;;;;;2.50;1.75;;;;;20.98;70.09;101646.88;5080204;27;66126;-68
2023/09/03 02:46:02;;;;;;;;;3.75;3.75;;;;;20.93;70.18;101640.94;5069166;28;68451;-67
2023/09/03 02:48:27;;;;;;;;;3.00;3.00;;;;;20.97;70.58;101653.13;5067699;28;68324;-66
2023/09/03 02:50:53;;;;;;;;;4.50;4.25;;;;;20.97;70.36;101652.28;5075981;27;70484;-67
2023/09/03 02:53:18;;;;;;;;;5.75;4.00;;;;;20.95;70.13;101660.34;5076095;27;73625;-67
2023/09/03 02:55:43;;;;;;;;;3.00;3.00;;;;;20.95;69.70;101657.66;5079050;27;62415;-67
2023/09/03 02:58:08;;;;;;;;;6.75;6.75;;;;;20.92;70.47;101663.16;5089106;27;66486;-67
2023/09/03 03:00:34;;;;;;;;;8.00;5.00;;;;;20.89;70.45;101673.13;5071872;27;55865;-67
2023/09/03 03:02:59;;;;;;;;;5.75;5.00;;;;;20.89;70.45;101673.97;5071548;27;59571;-66
2023/09/03 03:05:25;;;;;;;;;7.00;5.00;;;;;20.86;70.21;101675.00;5073709;28;45414;-67
2023/09/03 03:07:50;;;;;;;;;4.00;3.00;;;;;20.84;70.58;101679.56;5075210;27;45388;-67
2023/09/03 03:10:16;;;;;;;;;2.50;2.25;;;;;20.81;70.94;101679.72;5089160;27;55750;-67
2023/09/03 03:12:45;;;;;;;;;44.25;36.00;;;;;20.77;71.61;101671.97;5074220;27;47066;-67
2023/09/03 03:15:10;;;;;;;;;6.25;4.00;;;;;20.75;71.13;101669.44;5075560;28;56877;-67
2023/09/03 03:17:36;;;;;;;;;4.00;2.25;;;;;20.71;71.15;101667.00;5079270;27;45295;-67
2023/09/03 03:20:03;;;;;;;;;2.75;2.75;;;;;20.72;71.20;101677.56;5091528;27;45335;-67
2023/09/03 03:22:28;;;;;;;;;3.50;3.00;;;;;20.66;71.31;101669.91;5069177;27;45434;-67
2023/09/03 03:24:53;;;;;;;;;2.50;2.00;;;;;20.67;70.92;101677.81;5062416;28;45279;-67
2023/09/03 03:27:20;;;;;;;;;3.00;3.00;;;;;20.65;71.37;101668.22;5079337;27;45899;-67
2023/09/03 03:29:45;;;;;;;;;2.75;2.75;;;;;20.65;71.38;101678.84;5073675;27;45256;-67
2023/09/03 03:32:10;;;;;;;;;4.25;3.75;;;;;20.63;71.30;101675.41;5075983;27;62342;-67
2023/09/03 03:34:39;;;;;;;;;6.25;4.75;;;;;20.61;71.37;101682.56;5076967;27;68114;-67
2023/09/03 03:37:05;;;;;;;;;6.00;4.00;;;;;20.59;71.60;101682.69;5069547;27;45421;-67
2023/09/03 03:39:30;;;;;;;;;4.50;4.50;;;;;20.56;71.27;101685.50;5077088;27;62096;-67
2023/09/03 03:41:55;;;;;;;;;3.50;3.00;;;;;20.56;71.46;101684.63;5074735;27;74470;-67
2023/09/03 03:44:21;;;;;;;;;3.75;3.75;;;;;20.55;71.31;101688.22;5075447;28;50558;-67
2023/09/03 03:46:46;;;;;;;;;2.00;2.00;;;;;20.51;71.49;101692.00;5071021;28;56131;-67
2023/09/03 03:49:11;;;;;;;;;3.50;3.50;;;;;20.49;72.19;101700.91;5074784;28;68717;-66
2023/09/03 03:51:37;;;;;;;;;5.75;5.00;;;;;20.47;72.26;101699.28;5075432;28;45570;-66
2023/09/03 03:54:04;;;;;;;;;4.25;3.75;;;;;20.44;72.11;101702.94;5070460;27;62001;-66
2023/09/03 03:56:29;;;;;;;;;3.50;3.50;;;;;20.45;72.31;101706.47;5080309;27;45331;-66
2023/09/03 03:58:55;;;;;;;;;4.00;4.00;;;;;20.44;72.15;101704.75;5070107;27;45434;-67
2023/09/03 04:01:23;;;;;;;;;5.00;3.50;;;;;20.44;71.87;101705.59;5062062;28;46998;-66
2023/09/03 04:03:51;;;;;;;;;3.75;3.00;;;;;20.43;72.37;101711.00;5080082;27;45369;-67
2023/09/03 04:06:17;;;;;;;;;5.00;3.50;;;;;20.39;72.38;101710.31;5076851;27;45364;-65
2023/09/03 04:08:45;;;;;;;;;2.75;0.00;;;;;20.38;72.47;101715.69;5069840;28;45197;-66
2023/09/03 04:11:16;;;;;;;;;5.25;3.00;;;;;20.35;72.18;101719.41;5059222;28;46785;-67
2023/09/03 04:13:42;;;;;;;;;3.25;3.25;;;;;20.32;72.75;101713.38;5078823;27;45445;-65
2023/09/03 04:16:13;;;;;;;;;5.25;3.00;;;;;20.30;72.80;101724.09;5069118;27;45279;-65
2023/09/03 04:18:39;;;;;;;;;11.75;10.75;;;;;20.29;73.17;101720.59;5069643;28;45311;-65
2023/09/03 04:21:04;;;;;;;;;4.25;4.25;;;;;20.31;72.97;101723.16;5062510;28;45431;-66
2023/09/03 04:23:30;;;;;;;;;2.75;2.25;;;;;20.31;72.46;101723.16;5076210;28;45347;-66
2023/09/03 04:25:56;;;;;;;;;2.75;2.75;;;;;20.31;72.42;101731.13;5081448;28;45330;-66
2023/09/03 04:28:22;;;;;;;;;4.50;3.00;;;;;20.29;73.17;101731.22;5076153;27;45437;-65
2023/09/03 04:30:59;;;;;;;;;3.75;3.75;;;;;20.30;72.94;101729.41;5079645;27;46169;-66
2023/09/03 04:33:25;;;;;;;;;10.25;6.50;;;;;20.30;72.71;101734.72;5076802;28;45674;-67
2023/09/03 04:35:58;;;;;;;;;21.00;17.75;;;;;20.30;72.54;101726.75;5076555;28;45408;-67
2023/09/03 04:38:24;;;;;;;;;6.00;6.00;;;;;20.29;72.92;101733.88;5076503;27;45652;-66
2023/09/03 04:40:50;;;;;;;;;4.75;3.50;;;;;20.30;72.80;101742.69;5058846;27;46238;-66
2023/09/03 04:43:15;;;;;;;;;4.25;4.00;;;;;20.27;72.61;101742.84;5074616;28;45805;-67
2023/09/03 04:45:51;;;;;;;;;3.00;3.00;;;;;20.30;73.05;101745.34;5073228;28;45358;-67
2023/09/03 04:48:18;;;;;;;;;8.00;4.00;;;;;20.29;72.57;101736.53;5080034;27;45545;-67
2023/09/03 04:50:43;;;;;;;;;5.00;4.00;;;;;20.29;72.61;101739.19;5078759;27;45377;-67
2023/09/03 04:53:09;;;;;;;;;3.00;3.00;;;;;20.29;73.00;101746.28;5071095;27;68470;-66
2023/09/03 04:55:35;;;;;;;;;3.00;3.00;;;;;20.29;73.13;101744.50;5074821;28;45517;-67
2023/09/03 04:58:01;;;;;;;;;5.00;4.50;;;;;20.28;72.34;101742.78;5081893;27;45288;-67
2023/09/03 05:00:30;;;;;;;;;3.75;3.25;;;;;20.30;72.78;101745.34;5076554;28;71196;-68
2023/09/03 05:02:55;;;;;;;;;4.00;4.00;;;;;20.29;72.36;101743.63;5076273;27;45264;-67
2023/09/03 05:05:21;;;;;;;;;3.75;3.75;;;;;20.27;72.44;101750.81;5071976;28;45457;-67
2023/09/03 05:07:47;;;;;;;;;15.00;11.75;;;;;20.28;72.51;101749.91;5077578;27;45411;-67
2023/09/03 05:10:13;;;;;;;;;8.75;7.75;;;;;20.28;72.90;101753.41;5075316;27;46088;-67
2023/09/03 05:12:40;;;;;;;;;5.00;3.75;;;;;20.27;73.17;101762.34;5075999;27;45284;-67
2023/09/03 05:15:10;;;;;;;;;6.00;5.00;;;;;20.27;72.87;101758.78;5072802;27;45230;-67
2023/09/03 05:17:35;;;;;;;;;4.50;4.50;;;;;20.27;73.00;101758.78;5070580;27;45605;-67
2023/09/03 05:20:01;;;;;;;;;5.00;3.50;;;;;20.26;72.90;101755.28;5073873;27;45430;-67
2023/09/03 05:22:26;;;;;;;;;6.00;6.00;;;;;20.25;73.02;101760.69;5078679;27;64982;-67
2023/09/03 05:24:51;;;;;;;;;7.00;4.00;;;;;20.23;73.00;101752.78;5060169;28;63879;-67
2023/09/03 05:27:17;;;;;;;;;3.00;2.50;;;;;20.23;73.09;101746.63;5070193;27;62760;-68
2023/09/03 05:29:42;;;;;;;;;6.00;4.00;;;;;20.21;73.15;101751.16;5079177;27;64837;-67
2023/09/03 05:32:07;;;;;;;;;12.25;12.25;;;;;20.22;72.89;101761.72;5077773;27;62340;-67
2023/09/03 05:34:33;;;;;;;;;11.75;8.25;;;;;20.22;73.25;101763.50;5081708;27;64381;-68
2023/09/03 05:36:58;;;;;;;;;5.00;4.25;;;;;20.22;73.09;101772.34;5068768;27;45492;-67
2023/09/03 05:39:25;;;;;;;;;4.75;4.00;;;;;20.22;73.12;101769.69;5078965;27;57032;-67
2023/09/03 05:41:50;;;;;;;;;3.25;2.00;;;;;20.22;73.33;101775.00;5075854;27;45329;-66
2023/09/03 05:44:15;;;;;;;;;5.25;4.00;;;;;20.21;72.91;101780.41;5076201;28;45349;-66
2023/09/03 05:46:41;;;;;;;;;3.75;3.75;;;;;20.18;72.95;101784.06;5077333;28;45177;-67
2023/09/03 05:49:06;;;;;;;;;4.75;4.00;;;;;20.21;73.36;101791.03;5072430;27;46031;-67
2023/09/03 05:51:32;;;;;;;;;5.00;5.00;;;;;20.20;73.13;101803.47;5076880;27;68509;-67
2023/09/03 05:53:57;;;;;;;;;7.25;6.25;;;;;20.20;73.53;101797.25;5080782;27;62995;-67
2023/09/03 05:56:23;;;;;;;;;8.75;4.75;;;;;20.19;73.58;101798.22;5075615;27;45355;-67
2023/09/03 05:58:50;;;;;;;;;5.00;5.00;;;;;20.18;73.55;101794.69;5071511;28;46052;-66
2023/09/03 06:01:16;;;;;;;;;7.75;5.00;;;;;20.18;73.52;101793.84;5079530;27;45738;-67
2023/09/03 06:03:42;;;;;;;;;4.25;3.50;;;;;20.18;73.25;101791.16;5076646;28;69713;-67
2023/09/03 06:06:08;;;;;;;;;5.00;3.00;;;;;20.19;73.39;101793.75;5080792;27;72003;-66
2023/09/03 06:08:38;;;;;;;;;4.00;4.00;;;;;20.21;73.18;101796.34;5071137;27;46221;-66
2023/09/03 06:11:05;;;;;;;;;5.00;3.75;;;;;20.22;73.81;101800.69;5075921;27;45461;-67
2023/09/03 06:13:31;;;;;;;;;4.00;4.00;;;;;20.23;73.35;101800.63;5078176;27;45227;-67
2023/09/03 06:15:57;;;;;;;;;4.00;4.00;;;;;20.26;73.71;101805.78;5080480;28;45369;-67
2023/09/03 06:18:23;;;;;;;;;4.50;3.50;;;;;20.28;73.49;101809.22;5076743;27;45379;-67
2023/09/03 06:20:49;;;;;;;;;37.00;28.75;;;;;20.33;73.33;101813.44;5081062;27;45365;-67
2023/09/03 06:23:18;;;;;;;;;5.00;5.00;;;;;20.39;73.38;101818.47;5077989;28;45301;-67
2023/09/03 06:25:48;;;;;;;;;7.00;6.25;;;;;20.43;73.04;101828.00;5066308;27;45533;-66
2023/09/03 06:28:13;;;;;;;;;7.50;7.00;;;;;20.46;72.77;101830.50;5079736;27;45473;-67
2023/09/03 06:30:39;;;;;;;;;5.00;3.00;;;;;20.53;72.96;101831.06;5072892;28;45453;-67
2023/09/03 06:33:04;;;;;;;;;5.00;5.00;;;;;20.55;72.81;101842.47;5094382;27;45493;-67
2023/09/03 06:35:30;;;;;;;;;6.25;6.00;;;;;20.56;72.28;101847.72;5079488;28;45310;-67
2023/09/03 06:37:56;;;;;;;;;11.00;9.00;;;;;20.59;72.35;101852.88;5079982;27;45263;-68
2023/09/03 06:40:22;;;;;;;;;5.00;5.00;;;;;20.64;72.26;101847.34;5081456;27;45359;-67
2023/09/03 06:42:47;;;;;;;;;4.75;4.75;;;;;20.69;72.11;101841.78;5079348;27;45421;-67
2023/09/03 06:45:13;;;;;;;;;4.75;4.75;;;;;20.75;71.75;101850.31;5077070;28;64597;-67
2023/09/03 06:47:38;;;;;;;;;4.25;4.25;;;;;20.78;71.59;101844.81;5072984;28;45521;-66
2023/09/03 06:50:05;;;;;;;;;7.25;5.75;;;;;20.84;72.02;101854.28;5067884;27;45397;-66
2023/09/03 06:52:31;;;;;;;;;1.75;1.25;;;;;20.86;71.44;101847.09;5093984;27;45413;-66
2023/09/03 06:54:56;;;;;;;;;12.00;12.00;;;;;20.89;71.78;101852.25;5067452;27;69265;-67
2023/09/03 06:57:21;;;;;;;;;3.50;3.50;;;;;20.92;71.55;101852.09;5076661;27;46104;-67
2023/09/03 06:59:47;;;;;;;;;4.00;4.00;;;;;20.93;71.39;101851.16;5076354;27;45379;-66
2023/09/03 07:02:12;;;;;;;;;4.25;4.25;;;;;20.94;71.54;101849.34;5072756;27;45299;-66
2023/09/03 07:04:37;;;;;;;;;5.00;5.00;;;;;20.98;71.06;101845.56;5075723;27;60415;-66
2023/09/03 07:07:03;;;;;;;;;5.25;4.25;;;;;21.04;71.32;101850.59;5069133;27;58339;-67
2023/09/03 07:09:31;;;;;;;;;6.25;6.25;;;;;21.08;70.81;101853.94;5074262;27;45424;-67
2023/09/03 07:11:56;;;;;;;;;5.00;5.00;;;;;21.12;70.74;101863.47;5074415;27;45168;-67
2023/09/03 07:14:22;;;;;;;;;10.75;8.75;;;;;21.18;71.20;101860.50;5072911;27;45450;-67
2023/09/03 07:16:47;;;;;;;;;6.00;4.75;;;;;21.24;71.06;101866.31;5077026;28;46132;-67
2023/09/03 07:19:12;;;;;;;;;5.50;4.00;;;;;21.29;70.13;101863.44;5073924;27;45300;-67
2023/09/03 07:21:38;;;;;;;;;6.00;4.50;;;;;21.35;70.63;101865.75;5070421;27;60692;-67
2023/09/03 07:24:03;;;;;;;;;6.50;4.00;;;;;21.41;70.28;101870.75;5066867;28;45485;-67
2023/09/03 07:26:28;;;;;;;;;7.00;4.50;;;;;21.49;69.79;101881.00;5069293;28;47240;-66
2023/09/03 07:28:54;;;;;;;;;6.00;6.00;;;;;21.56;69.99;101879.72;5067880;28;69628;-68
2023/09/03 07:31:19;;;;;;;;;5.00;4.75;;;;;21.64;69.75;101879.31;5077483;28;45279;-66
2023/09/03 07:33:44;;;;;;;;;4.50;4.50;;;;;21.71;69.00;101869.16;5075679;27;69929;-67
2023/09/03 07:36:10;;;;;;;;;4.75;4.00;;;;;21.78;69.35;101878.56;5076712;28;62288;-66
2023/09/03 07:38:37;;;;;;;;;5.00;3.50;;;;;21.85;68.47;101871.06;5075569;27;45458;-66
2023/09/03 07:41:03;;;;;;;;;7.50;4.50;;;;;21.90;68.57;101863.66;5066140;27;45487;-66
2023/09/03 07:43:29;;;;;;;;;6.25;6.00;;;;;21.97;68.32;101860.56;5077204;27;72240;-67
2023/09/03 07:45:54;;;;;;;;;3.75;3.00;;;;;22.04;68.17;101855.72;5078494;27;45549;-66
2023/09/03 07:48:20;;;;;;;;;4.00;3.00;;;;;22.12;67.65;101849.97;5076233;28;45287;-66
2023/09/03 07:50:45;;;;;;;;;3.00;3.00;;;;;22.19;68.05;101851.34;5075663;27;45330;-66
2023/09/03 07:53:10;;;;;;;;;6.00;4.00;;;;;22.27;67.39;101842.91;5068226;27;45251;-66
2023/09/03 07:55:36;;;;;;;;;3.25;3.25;;;;;22.32;67.43;101844.34;5075417;27;75489;-66
2023/09/03 07:58:01;;;;;;;;;1.75;1.75;;;;;22.40;67.37;101840.38;5075288;27;51881;-67
2023/09/03 08:00:27;;;;;;;;;3.00;2.75;;;;;22.46;66.82;101838.19;5075156;28;45283;-66
2023/09/03 08:02:52;;;;;;;;;4.00;3.00;;;;;22.53;66.39;101838.69;5077041;27;45231;-67
2023/09/03 08:05:18;;;;;;;;;11.00;10.50;;;;;22.59;66.09;101840.97;5073809;28;46086;-67
2023/09/03 08:07:43;;;;;;;;;4.50;4.25;;;;;22.66;66.18;101844.16;5066395;28;45427;-67
2023/09/03 08:10:09;;;;;;;;;3.00;3.00;;;;;22.70;66.05;101849.22;5075268;28;45851;-67
2023/09/03 08:12:35;;;;;;;;;20.75;16.50;;;;;22.82;65.98;101854.75;5077209;28;45243;-66
2023/09/03 08:15:00;;;;;;;;;6.75;6.00;;;;;22.88;65.36;101854.38;5073876;28;45268;-65
2023/09/03 08:17:26;;;;;;;;;13.00;7.75;;;;;22.94;65.14;101852.19;5072656;28;45165;-67
2023/09/03 08:19:52;;;;;;;;;8.50;6.00;;;;;23.02;64.96;101853.50;5065703;28;45451;-67
2023/09/03 08:22:17;;;;;;;;;7.50;7.00;;;;;23.08;65.20;101847.84;5079851;27;45733;-67
2023/09/03 08:24:43;;;;;;;;;5.75;4.00;;;;;23.16;64.75;101853.56;5074697;28;64436;-67
2023/09/03 08:27:08;;;;;;;;;11.00;10.75;;;;;23.22;64.56;101847.84;5074369;27;69861;-67
2023/09/03 08:29:34;;;;;;;;;9.50;7.25;;;;;23.29;64.54;101841.16;5076860;27;45496;-67
2023/09/03 08:31:59;;;;;;;;;11.50;6.75;;;;;23.36;64.06;101840.78;5076261;28;45409;-67
2023/09/03 08:34:24;;;;;;;;;3.00;3.00;;;;;23.42;63.75;101827.88;5074692;27;47132;-67
2023/09/03 08:36:50;;;;;;;;;6.00;5.00;;;;;23.51;63.69;101829.09;5074668;27;45396;-68
2023/09/03 08:39:15;;;;;;;;;6.50;6.50;;;;;23.60;63.81;101835.66;5074978;27;45622;-67
2023/09/03 08:41:41;;;;;;;;;7.25;5.25;;;;;23.67;63.54;101834.31;5067659;27;67910;-68
2023/09/03 08:44:17;;;;;;;;;10.25;6.25;;;;;23.77;62.88;101839.91;5074897;27;45939;-67
2023/09/03 08:46:45;;;;;;;;;6.25;3.50;;;;;23.85;62.78;101851.88;5087948;27;45223;-68
2023/09/03 08:49:12;;;;;;;;;1.50;1.25;;;;;23.93;62.23;101840.66;5071467;28;68409;-67
2023/09/03 08:51:37;;;;;;;;;5.25;4.00;;;;;24.06;62.34;101851.38;5065592;28;45596;-67
2023/09/03 08:54:04;;;;;;;;;7.75;5.00;;;;;24.15;62.10;101856.16;5068785;28;45306;-67
2023/09/03 08:56:30;;;;;;;;;4.00;3.25;;;;;24.25;62.04;101845.69;5071779;28;45553;-67
2023/09/03 08:58:55;;;;;;;;;6.50;3.75;;;;;24.33;61.87;101848.69;5074248;28;45412;-67
2023/09/03 09:01:21;;;;;;;;;3.00;3.00;;;;;24.42;61.25;101844.56;5076453;27;62053;-67
2023/09/03 09:03:50;;;;;;;;;2.50;2.50;;;;;24.50;60.47;101844.84;5068574;27;71369;-67
2023/09/03 09:06:16;;;;;;;;;3.00;2.75;;;;;24.60;61.08;101850.50;5074054;27;45619;-68
2023/09/03 09:08:42;;;;;;;;;3.25;3.00;;;;;24.70;60.42;101854.25;5073231;28;45476;-67
2023/09/03 09:11:12;;;;;;;;;2.25;2.25;;;;;24.78;60.00;101849.19;5074052;28;45516;-67
2023/09/03 09:13:38;;;;;;;;;3.25;3.25;;;;;24.85;59.80;101857.66;5072822;27;45574;-67
2023/09/03 09:16:04;;;;;;;;;2.00;2.00;;;;;24.91;58.90;101854.56;5070161;28;45645;-67
2023/09/03 09:18:29;;;;;;;;;4.00;3.00;;;;;25.01;59.35;101866.34;5073703;27;45325;-67
2023/09/03 09:20:57;;;;;;;;;1.25;1.25;;;;;25.09;59.71;101863.13;5076907;27;60642;-68
2023/09/03 09:23:24;;;;;;;;;6.75;5.00;;;;;25.18;58.95;101856.28;5074252;28;45311;-67
2023/09/03 09:25:50;;;;;;;;;4.50;2.50;;;;;25.27;58.81;101858.31;5068949;28;45725;-67
2023/09/03 09:28:15;;;;;;;;;3.75;3.75;;;;;25.37;58.73;101859.38;5056369;28;45448;-66
2023/09/03 09:30:57;;;;;;;;;4.75;2.75;;;;;25.46;58.42;101855.19;5079488;28;67127;-67
2023/09/03 09:33:23;;;;;;;;;4.00;3.75;;;;;25.56;58.56;101858.88;5079664;27;46224;-67
2023/09/03 09:35:48;;;;;;;;;7.50;5.75;;;;;25.64;58.45;101863.72;5078018;27;45400;-67
2023/09/03 09:38:15;;;;;;;;;4.00;2.75;;;;;25.73;57.74;101868.38;5081582;27;45315;-67
2023/09/03 09:40:40;;;;;;;;;4.50;3.00;;;;;25.82;57.52;101871.38;5082480;27;45433;-67
2023/09/03 09:43:08;;;;;;;;;3.00;3.00;;;;;25.91;57.07;101876.06;5074513;27;52515;-67
2023/09/03 09:45:45;;;;;;;;;3.75;3.00;;;;;25.97;57.09;101880.97;5082386;27;45242;-67
2023/09/03 09:48:10;;;;;;;;;3.75;3.25;;;;;26.06;56.92;101880.28;5075475;27;45193;-67
2023/09/03 09:50:37;;;;;;;;;3.00;3.00;;;;;26.16;57.62;101879.63;5070161;27;61236;-67
2023/09/03 09:53:03;;;;;;;;;2.00;2.00;;;;;26.24;57.07;101877.19;5092251;27;48518;-67
2023/09/03 09:55:31;;;;;;;;;2.50;2.50;;;;;26.34;55.95;101870.16;5075673;28;45311;-67
2023/09/03 09:57:57;;;;;;;;;1.75;1.75;;;;;26.44;56.53;101868.50;5074476;27;45237;-67
2023/09/03 10:00:33;;;;;;;;;5.75;3.75;;;;;26.56;56.50;101879.25;5063604;28;65322;-67
2023/09/03 10:02:58;;;;;;;;;9.50;7.50;;;;;26.64;55.47;101875.03;5061881;28;46380;-67
2023/09/03 10:05:23;;;;;;;;;5.50;5.00;;;;;26.75;55.59;101870.69;5062104;28;45377;-66
2023/09/03 10:07:49;;;;;;;;;4.00;3.00;;;;;26.83;53.92;101870.94;5080279;28;45562;-67
2023/09/03 10:10:15;;;;;;;;;3.50;3.50;;;;;26.91;54.50;101868.50;5075848;28;59555;-68
2023/09/03 10:12:40;;;;;;;;;4.50;4.50;;;;;27.01;54.04;101868.63;5078148;28;45367;-68
2023/09/03 10:15:07;;;;;;;;;4.00;4.00;;;;;27.10;54.05;101867.91;5078658;28;73056;-68
2023/09/03 10:17:33;;;;;;;;;4.75;3.25;;;;;27.16;53.43;101867.44;5047677;28;45461;-67
2023/09/03 10:20:04;;;;;;;;;7.00;3.75;;;;;27.23;53.88;101857.91;5062193;28;45405;-68
2023/09/03 10:22:30;;;;;;;;;2.00;2.00;;;;;27.29;54.03;101859.28;5069832;28;46304;-68
2023/09/03 10:25:02;;;;;;;;;4.50;2.75;;;;;27.33;52.82;101855.34;5067558;28;45654;-68
2023/09/03 10:27:32;;;;;;;;;4.75;3.25;;;;;27.35;53.19;101864.13;5072008;28;45256;-68
2023/09/03 10:29:59;;;;;;;;;4.25;4.00;;;;;27.40;53.84;101856.56;5077641;28;45460;-66
2023/09/03 10:32:25;;;;;;;;;3.00;3.00;;;;;27.46;53.34;101860.56;5073763;28;46416;-67
2023/09/03 10:34:51;;;;;;;;;3.50;2.00;;;;;27.51;53.34;101866.44;5072010;28;45358;-67
2023/09/03 10:37:16;;;;;;;;;10.75;10.75;;;;;27.56;52.60;101861.53;5060179;28;68255;-66
2023/09/03 10:39:45;;;;;;;;;4.00;3.75;;;;;27.60;52.63;101862.16;5075971;27;45463;-67
2023/09/03 10:42:29;;;;;;;;;11.50;7.75;;;;;27.67;52.97;101865.19;5073765;28;46168;-68
2023/09/03 10:44:59;;;;;;;;;3.50;2.00;;;;;27.72;52.87;101877.28;5071042;28;45185;-67
2023/09/03 10:47:27;;;;;;;;;5.50;4.00;;;;;27.72;52.72;101874.59;5073170;27;45463;-68
2023/09/03 10:49:56;;;;;;;;;12.25;9.25;;;;;27.76;52.25;101867.97;5085675;27;45560;-67
2023/09/03 10:52:28;;;;;;;;;5.00;3.75;;;;;27.80;52.73;101874.84;5066259;28;46371;-68
2023/09/03 10:55:20;;;;;;;;;5.00;3.75;;;;;27.84;52.52;101870.06;5072587;28;45181;-66
2023/09/03 10:58:06;;;;;;;;;5.25;3.25;;;;;27.88;52.06;101865.28;5076968;27;45285;-67
2023/09/03 11:00:31;;;;;;;;;2.50;2.00;;;;;27.92;51.92;101861.38;5067489;28;45698;-67
2023/09/03 11:03:17;;;;;;;;;7.75;6.25;;;;;28.01;52.07;101864.16;5072191;28;45402;-67
2023/09/03 11:06:16;;;;;;;;;10.75;9.25;;;;;28.06;52.10;101865.59;5062372;28;45226;-66
2023/09/03 11:08:41;;;;;;;;;4.00;4.00;;;;;28.11;51.64;101863.38;5074435;28;45425;-68
2023/09/03 11:11:10;;;;;;;;;10.50;8.75;;;;;28.16;51.16;101866.53;5062284;28;45585;-67
2023/09/03 11:13:35;;;;;;;;;5.00;5.00;;;;;28.21;51.39;101857.09;5054004;28;46433;-66
2023/09/03 11:16:00;;;;;;;;;10.00;8.25;;;;;28.27;51.78;101852.19;5069177;28;45490;-66
2023/09/03 11:18:26;;;;;;;;;6.00;5.00;;;;;28.33;51.27;101851.63;5076861;28;60387;-66
2023/09/03 11:20:52;;;;;;;;;4.75;4.25;;;;;28.37;51.22;101845.03;5070641;28;45229;-66
2023/09/03 11:23:18;;;;;;;;;8.25;7.00;;;;;28.43;50.75;101849.88;5059548;28;46337;-66
2023/09/03 11:25:44;;;;;;;;;4.25;2.75;;;;;28.47;51.09;101840.53;5066052;28;45586;-66